sensor_id;sensor_type;location;lat;lon;timestamp;P1;durP1;ratioP1;P2;durP2;ratioP2
21820;SDS011;11073;48.586;12.066;2023-07-24T00:01:57;11.52;;;7.53;;
21820;SDS011;11073;48.586;12.066;2023-07-24T00:04:27;12.70;;;7.78;;
21820;SDS011;11073;48.586;12.066;2023-07-24T00:06:59;12.40;;;8.20;;
21820;SDS011;11073;48.586;12.066;2023-07-24T00:09:28;9.00;;;7.00;;
21820;SDS011;11073;48.586;12.066;2023-07-24T00:11:57;16.85;;;7.95;;
21820;SDS011;11073;48.586;12.066;2023-07-24T00:14:26;10.55;;;7.78;;
21820;SDS011;11073;48.586;12.066;2023-07-24T00:16:55;11.10;;;7.60;;
21820;SDS011;11073;48.586;12.066;2023-07-24T00:19:25;11.77;;;7.20;;
21820;SDS011;11073;48.586;12.066;2023-07-24T00:21:54;11.68;;;8.32;;
21820;SDS011;11073;48.586;12.066;2023-07-24T00:24:23;10.00;;;7.90;;
21820;SDS011;11073;48.586;12.066;2023-07-24T00:26:52;11.20;;;7.57;;
21820;SDS011;11073;48.586;12.066;2023-07-24T00:29:21;10.25;;;7.25;;
21820;SDS011;11073;48.586;12.066;2023-07-24T00:31:50;13.52;;;7.88;;
21820;SDS011;11073;48.586;12.066;2023-07-24T00:34:19;12.55;;;8.65;;
21820;SDS011;11073;48.586;12.066;2023-07-24T00:36:49;10.60;;;8.20;;
21820;SDS011;11073;48.586;12.066;2023-07-24T00:39:18;10.05;;;7.40;;
21820;SDS011;11073;48.586;12.066;2023-07-24T00:41:47;14.00;;;8.60;;
21820;SDS011;11073;48.586;12.066;2023-07-24T00:44:18;9.57;;;7.25;;
21820;SDS011;11073;48.586;12.066;2023-07-24T00:46:47;13.05;;;8.02;;
21820;SDS011;11073;48.586;12.066;2023-07-24T00:49:16;10.68;;;7.72;;
21820;SDS011;11073;48.586;12.066;2023-07-24T00:51:45;12.85;;;7.47;;
21820;SDS011;11073;48.586;12.066;2023-07-24T00:54:16;11.30;;;8.40;;
21820;SDS011;11073;48.586;12.066;2023-07-24T00:56:46;10.82;;;7.78;;
21820;SDS011;11073;48.586;12.066;2023-07-24T00:59:15;10.70;;;7.82;;
21820;SDS011;11073;48.586;12.066;2023-07-24T01:01:45;12.65;;;7.90;;
21820;SDS011;11073;48.586;12.066;2023-07-24T01:04:15;14.23;;;8.70;;
21820;SDS011;11073;48.586;12.066;2023-07-24T01:06:45;10.82;;;7.30;;
21820;SDS011;11073;48.586;12.066;2023-07-24T01:09:13;15.77;;;8.63;;
21820;SDS011;11073;48.586;12.066;2023-07-24T01:11:46;11.68;;;7.75;;
21820;SDS011;11073;48.586;12.066;2023-07-24T01:14:19;10.40;;;7.35;;
21820;SDS011;11073;48.586;12.066;2023-07-24T01:16:50;11.55;;;7.63;;
21820;SDS011;11073;48.586;12.066;2023-07-24T01:19:28;11.35;;;7.75;;
21820;SDS011;11073;48.586;12.066;2023-07-24T01:22:10;11.90;;;8.57;;
21820;SDS011;11073;48.586;12.066;2023-07-24T01:24:48;13.32;;;8.48;;
21820;SDS011;11073;48.586;12.066;2023-07-24T01:27:29;11.18;;;7.75;;
21820;SDS011;11073;48.586;12.066;2023-07-24T01:29:58;12.43;;;8.68;;
21820;SDS011;11073;48.586;12.066;2023-07-24T01:32:27;12.50;;;8.40;;
21820;SDS011;11073;48.586;12.066;2023-07-24T01:34:56;10.43;;;7.95;;
21820;SDS011;11073;48.586;12.066;2023-07-24T01:37:24;11.82;;;7.90;;
21820;SDS011;11073;48.586;12.066;2023-07-24T01:39:55;10.80;;;7.72;;
21820;SDS011;11073;48.586;12.066;2023-07-24T01:42:25;13.05;;;8.20;;
21820;SDS011;11073;48.586;12.066;2023-07-24T01:44:56;12.60;;;8.15;;
21820;SDS011;11073;48.586;12.066;2023-07-24T01:47:25;15.43;;;7.65;;
21820;SDS011;11073;48.586;12.066;2023-07-24T01:49:54;13.73;;;8.05;;
21820;SDS011;11073;48.586;12.066;2023-07-24T01:52:25;12.10;;;8.13;;
21820;SDS011;11073;48.586;12.066;2023-07-24T01:54:53;12.07;;;8.23;;
21820;SDS011;11073;48.586;12.066;2023-07-24T01:57:22;11.68;;;8.27;;
21820;SDS011;11073;48.586;12.066;2023-07-24T01:59:51;10.30;;;7.63;;
21820;SDS011;11073;48.586;12.066;2023-07-24T02:02:20;12.38;;;7.50;;
21820;SDS011;11073;48.586;12.066;2023-07-24T02:04:49;12.07;;;7.78;;
21820;SDS011;11073;48.586;12.066;2023-07-24T02:07:18;12.88;;;8.18;;
21820;SDS011;11073;48.586;12.066;2023-07-24T02:09:47;9.68;;;6.97;;
21820;SDS011;11073;48.586;12.066;2023-07-24T02:12:16;11.27;;;7.70;;
21820;SDS011;11073;48.586;12.066;2023-07-24T02:14:45;12.20;;;8.55;;
21820;SDS011;11073;48.586;12.066;2023-07-24T02:17:17;12.20;;;8.00;;
21820;SDS011;11073;48.586;12.066;2023-07-24T02:19:48;13.95;;;8.07;;
21820;SDS011;11073;48.586;12.066;2023-07-24T02:22:17;10.63;;;8.00;;
21820;SDS011;11073;48.586;12.066;2023-07-24T02:24:46;11.93;;;7.90;;
21820;SDS011;11073;48.586;12.066;2023-07-24T02:27:24;13.10;;;7.90;;
21820;SDS011;11073;48.586;12.066;2023-07-24T02:29:57;12.90;;;8.55;;
21820;SDS011;11073;48.586;12.066;2023-07-24T02:32:26;12.00;;;8.25;;
21820;SDS011;11073;48.586;12.066;2023-07-24T02:34:57;17.52;;;8.85;;
21820;SDS011;11073;48.586;12.066;2023-07-24T02:37:26;10.80;;;7.95;;
21820;SDS011;11073;48.586;12.066;2023-07-24T02:39:54;13.30;;;8.25;;
21820;SDS011;11073;48.586;12.066;2023-07-24T02:42:23;13.82;;;7.97;;
21820;SDS011;11073;48.586;12.066;2023-07-24T02:44:52;13.32;;;8.38;;
21820;SDS011;11073;48.586;12.066;2023-07-24T02:47:21;13.38;;;8.85;;
21820;SDS011;11073;48.586;12.066;2023-07-24T02:49:50;14.10;;;8.82;;
21820;SDS011;11073;48.586;12.066;2023-07-24T02:52:21;13.75;;;7.97;;
21820;SDS011;11073;48.586;12.066;2023-07-24T02:54:51;11.98;;;8.57;;
21820;SDS011;11073;48.586;12.066;2023-07-24T02:57:20;13.73;;;9.07;;
21820;SDS011;11073;48.586;12.066;2023-07-24T02:59:48;14.27;;;8.32;;
21820;SDS011;11073;48.586;12.066;2023-07-24T03:02:17;14.05;;;9.02;;
21820;SDS011;11073;48.586;12.066;2023-07-24T03:04:46;11.32;;;8.32;;
21820;SDS011;11073;48.586;12.066;2023-07-24T03:07:15;14.35;;;8.02;;
21820;SDS011;11073;48.586;12.066;2023-07-24T03:09:45;12.57;;;8.95;;
21820;SDS011;11073;48.586;12.066;2023-07-24T03:12:15;16.17;;;9.25;;
21820;SDS011;11073;48.586;12.066;2023-07-24T03:14:45;13.80;;;8.82;;
21820;SDS011;11073;48.586;12.066;2023-07-24T03:17:14;14.30;;;8.32;;
21820;SDS011;11073;48.586;12.066;2023-07-24T03:19:43;12.23;;;8.30;;
21820;SDS011;11073;48.586;12.066;2023-07-24T03:22:12;14.60;;;8.98;;
21820;SDS011;11073;48.586;12.066;2023-07-24T03:24:41;13.38;;;8.48;;
21820;SDS011;11073;48.586;12.066;2023-07-24T03:27:10;13.20;;;8.27;;
21820;SDS011;11073;48.586;12.066;2023-07-24T03:29:39;12.45;;;8.07;;
21820;SDS011;11073;48.586;12.066;2023-07-24T03:32:08;15.00;;;9.13;;
21820;SDS011;11073;48.586;12.066;2023-07-24T03:34:37;17.70;;;8.90;;
21820;SDS011;11073;48.586;12.066;2023-07-24T03:37:06;13.70;;;8.45;;
21820;SDS011;11073;48.586;12.066;2023-07-24T03:39:35;12.60;;;8.52;;
21820;SDS011;11073;48.586;12.066;2023-07-24T03:42:04;13.55;;;8.68;;
21820;SDS011;11073;48.586;12.066;2023-07-24T03:44:35;15.02;;;8.88;;
21820;SDS011;11073;48.586;12.066;2023-07-24T03:47:04;11.50;;;8.73;;
21820;SDS011;11073;48.586;12.066;2023-07-24T03:49:33;15.73;;;8.80;;
21820;SDS011;11073;48.586;12.066;2023-07-24T03:52:02;13.20;;;9.60;;
21820;SDS011;11073;48.586;12.066;2023-07-24T03:54:32;13.23;;;9.48;;
21820;SDS011;11073;48.586;12.066;2023-07-24T03:57:01;15.23;;;10.32;;
21820;SDS011;11073;48.586;12.066;2023-07-24T03:59:30;15.13;;;9.30;;
21820;SDS011;11073;48.586;12.066;2023-07-24T04:02:01;14.57;;;9.13;;
21820;SDS011;11073;48.586;12.066;2023-07-24T04:04:30;15.85;;;9.52;;
21820;SDS011;11073;48.586;12.066;2023-07-24T04:06:59;14.13;;;9.07;;
21820;SDS011;11073;48.586;12.066;2023-07-24T04:09:28;13.38;;;9.43;;
21820;SDS011;11073;48.586;12.066;2023-07-24T04:11:56;12.18;;;9.45;;
21820;SDS011;11073;48.586;12.066;2023-07-24T04:14:26;12.85;;;9.05;;
21820;SDS011;11073;48.586;12.066;2023-07-24T04:16:54;16.77;;;10.15;;
21820;SDS011;11073;48.586;12.066;2023-07-24T04:19:24;15.02;;;9.70;;
21820;SDS011;11073;48.586;12.066;2023-07-24T04:21:53;14.32;;;9.57;;
21820;SDS011;11073;48.586;12.066;2023-07-24T04:24:22;14.48;;;9.75;;
21820;SDS011;11073;48.586;12.066;2023-07-24T04:26:51;13.77;;;10.07;;
21820;SDS011;11073;48.586;12.066;2023-07-24T04:29:20;14.82;;;10.80;;
21820;SDS011;11073;48.586;12.066;2023-07-24T04:31:51;14.10;;;9.27;;
21820;SDS011;11073;48.586;12.066;2023-07-24T04:34:20;17.92;;;11.20;;
21820;SDS011;11073;48.586;12.066;2023-07-24T04:36:50;14.98;;;10.15;;
21820;SDS011;11073;48.586;12.066;2023-07-24T04:39:19;13.23;;;9.68;;
21820;SDS011;11073;48.586;12.066;2023-07-24T04:41:48;11.82;;;9.15;;
21820;SDS011;11073;48.586;12.066;2023-07-24T04:44:17;14.07;;;10.23;;
21820;SDS011;11073;48.586;12.066;2023-07-24T04:46:46;15.15;;;10.18;;
21820;SDS011;11073;48.586;12.066;2023-07-24T04:49:15;14.32;;;10.05;;
21820;SDS011;11073;48.586;12.066;2023-07-24T04:51:44;15.55;;;10.20;;
21820;SDS011;11073;48.586;12.066;2023-07-24T04:54:14;16.23;;;10.27;;
21820;SDS011;11073;48.586;12.066;2023-07-24T04:56:43;16.40;;;10.23;;
21820;SDS011;11073;48.586;12.066;2023-07-24T04:59:12;17.27;;;10.15;;
21820;SDS011;11073;48.586;12.066;2023-07-24T05:01:41;16.38;;;10.95;;
21820;SDS011;11073;48.586;12.066;2023-07-24T05:04:10;19.15;;;11.55;;
21820;SDS011;11073;48.586;12.066;2023-07-24T05:06:38;16.02;;;10.98;;
21820;SDS011;11073;48.586;12.066;2023-07-24T05:09:07;17.30;;;11.10;;
21820;SDS011;11073;48.586;12.066;2023-07-24T05:11:38;15.90;;;11.15;;
21820;SDS011;11073;48.586;12.066;2023-07-24T05:14:07;17.23;;;11.75;;
21820;SDS011;11073;48.586;12.066;2023-07-24T05:16:35;17.25;;;11.55;;
21820;SDS011;11073;48.586;12.066;2023-07-24T05:19:04;16.33;;;11.10;;
21820;SDS011;11073;48.586;12.066;2023-07-24T05:21:33;14.73;;;11.40;;
21820;SDS011;11073;48.586;12.066;2023-07-24T05:24:02;16.00;;;11.45;;
21820;SDS011;11073;48.586;12.066;2023-07-24T05:26:31;18.13;;;10.95;;
21820;SDS011;11073;48.586;12.066;2023-07-24T05:29:01;20.60;;;11.05;;
21820;SDS011;11073;48.586;12.066;2023-07-24T05:31:30;31.73;;;12.40;;
21820;SDS011;11073;48.586;12.066;2023-07-24T05:33:59;25.15;;;10.63;;
21820;SDS011;11073;48.586;12.066;2023-07-24T05:36:28;19.73;;;11.07;;
21820;SDS011;11073;48.586;12.066;2023-07-24T05:38:57;14.00;;;9.75;;
21820;SDS011;11073;48.586;12.066;2023-07-24T05:41:26;15.63;;;11.18;;
21820;SDS011;11073;48.586;12.066;2023-07-24T05:43:55;17.23;;;10.30;;
21820;SDS011;11073;48.586;12.066;2023-07-24T05:46:25;13.95;;;10.68;;
21820;SDS011;11073;48.586;12.066;2023-07-24T05:48:55;15.43;;;10.90;;
21820;SDS011;11073;48.586;12.066;2023-07-24T05:51:24;22.27;;;11.63;;
21820;SDS011;11073;48.586;12.066;2023-07-24T05:53:53;23.55;;;11.88;;
21820;SDS011;11073;48.586;12.066;2023-07-24T05:56:21;20.00;;;11.25;;
21820;SDS011;11073;48.586;12.066;2023-07-24T05:58:50;25.30;;;11.82;;
21820;SDS011;11073;48.586;12.066;2023-07-24T06:01:20;18.80;;;10.68;;
21820;SDS011;11073;48.586;12.066;2023-07-24T06:03:51;19.00;;;10.88;;
21820;SDS011;11073;48.586;12.066;2023-07-24T06:06:19;17.08;;;11.30;;
21820;SDS011;11073;48.586;12.066;2023-07-24T06:08:48;22.55;;;11.98;;
21820;SDS011;11073;48.586;12.066;2023-07-24T06:11:18;16.20;;;10.27;;
21820;SDS011;11073;48.586;12.066;2023-07-24T06:13:47;16.90;;;11.65;;
21820;SDS011;11073;48.586;12.066;2023-07-24T06:16:16;16.98;;;11.05;;
21820;SDS011;11073;48.586;12.066;2023-07-24T06:18:45;15.82;;;11.23;;
21820;SDS011;11073;48.586;12.066;2023-07-24T06:21:15;17.15;;;11.20;;
21820;SDS011;11073;48.586;12.066;2023-07-24T06:23:44;16.15;;;10.85;;
21820;SDS011;11073;48.586;12.066;2023-07-24T06:26:12;14.13;;;11.32;;
21820;SDS011;11073;48.586;12.066;2023-07-24T06:28:41;13.07;;;10.38;;
21820;SDS011;11073;48.586;12.066;2023-07-24T06:31:11;14.57;;;10.25;;
21820;SDS011;11073;48.586;12.066;2023-07-24T06:33:39;18.45;;;10.45;;
21820;SDS011;11073;48.586;12.066;2023-07-24T06:36:08;14.75;;;9.98;;
21820;SDS011;11073;48.586;12.066;2023-07-24T06:38:39;15.75;;;10.55;;
21820;SDS011;11073;48.586;12.066;2023-07-24T06:41:09;13.63;;;9.60;;
21820;SDS011;11073;48.586;12.066;2023-07-24T06:43:38;14.52;;;10.25;;
21820;SDS011;11073;48.586;12.066;2023-07-24T06:46:07;14.68;;;9.90;;
21820;SDS011;11073;48.586;12.066;2023-07-24T06:48:37;19.20;;;11.30;;
21820;SDS011;11073;48.586;12.066;2023-07-24T06:51:06;17.10;;;10.52;;
21820;SDS011;11073;48.586;12.066;2023-07-24T06:53:34;14.18;;;10.80;;
21820;SDS011;11073;48.586;12.066;2023-07-24T06:56:04;14.27;;;10.27;;
21820;SDS011;11073;48.586;12.066;2023-07-24T06:58:33;18.02;;;10.95;;
21820;SDS011;11073;48.586;12.066;2023-07-24T07:01:04;14.38;;;10.35;;
21820;SDS011;11073;48.586;12.066;2023-07-24T07:03:34;14.63;;;10.57;;
21820;SDS011;11073;48.586;12.066;2023-07-24T07:06:03;14.20;;;10.55;;
21820;SDS011;11073;48.586;12.066;2023-07-24T07:08:34;14.93;;;10.93;;
21820;SDS011;11073;48.586;12.066;2023-07-24T07:11:02;16.63;;;10.93;;
21820;SDS011;11073;48.586;12.066;2023-07-24T07:13:33;15.60;;;10.50;;
21820;SDS011;11073;48.586;12.066;2023-07-24T07:16:01;14.02;;;10.50;;
21820;SDS011;11073;48.586;12.066;2023-07-24T07:18:30;14.38;;;10.02;;
21820;SDS011;11073;48.586;12.066;2023-07-24T07:20:58;14.23;;;10.52;;
21820;SDS011;11073;48.586;12.066;2023-07-24T07:23:27;15.18;;;10.90;;
21820;SDS011;11073;48.586;12.066;2023-07-24T07:25:56;18.45;;;10.30;;
21820;SDS011;11073;48.586;12.066;2023-07-24T07:28:26;15.35;;;10.35;;
21820;SDS011;11073;48.586;12.066;2023-07-24T07:30:55;13.85;;;11.00;;
21820;SDS011;11073;48.586;12.066;2023-07-24T07:33:23;16.35;;;10.80;;
21820;SDS011;11073;48.586;12.066;2023-07-24T07:35:52;14.82;;;10.60;;
21820;SDS011;11073;48.586;12.066;2023-07-24T07:38:24;13.52;;;10.07;;
21820;SDS011;11073;48.586;12.066;2023-07-24T07:40:53;18.63;;;10.52;;
21820;SDS011;11073;48.586;12.066;2023-07-24T07:43:22;15.40;;;10.90;;
21820;SDS011;11073;48.586;12.066;2023-07-24T07:45:52;24.20;;;13.02;;
21820;SDS011;11073;48.586;12.066;2023-07-24T07:48:20;19.00;;;11.60;;
21820;SDS011;11073;48.586;12.066;2023-07-24T07:50:50;19.27;;;12.23;;
21820;SDS011;11073;48.586;12.066;2023-07-24T07:53:19;16.80;;;11.88;;
21820;SDS011;11073;48.586;12.066;2023-07-24T07:55:54;18.17;;;10.60;;
21820;SDS011;11073;48.586;12.066;2023-07-24T07:58:24;15.35;;;10.65;;
21820;SDS011;11073;48.586;12.066;2023-07-24T08:00:54;14.57;;;10.18;;
21820;SDS011;11073;48.586;12.066;2023-07-24T08:03:23;14.05;;;9.48;;
21820;SDS011;11073;48.586;12.066;2023-07-24T08:05:51;13.25;;;9.20;;
21820;SDS011;11073;48.586;12.066;2023-07-24T08:08:25;15.48;;;9.63;;
21820;SDS011;11073;48.586;12.066;2023-07-24T08:10:54;13.35;;;9.23;;
21820;SDS011;11073;48.586;12.066;2023-07-24T08:13:23;15.40;;;8.98;;
21820;SDS011;11073;48.586;12.066;2023-07-24T08:15:52;13.73;;;9.50;;
21820;SDS011;11073;48.586;12.066;2023-07-24T08:18:21;13.98;;;10.05;;
21820;SDS011;11073;48.586;12.066;2023-07-24T08:20:50;13.98;;;9.52;;
21820;SDS011;11073;48.586;12.066;2023-07-24T08:23:19;14.70;;;9.68;;
21820;SDS011;11073;48.586;12.066;2023-07-24T08:25:51;13.52;;;9.95;;
21820;SDS011;11073;48.586;12.066;2023-07-24T08:28:21;12.90;;;9.68;;
21820;SDS011;11073;48.586;12.066;2023-07-24T08:30:55;14.27;;;10.07;;
21820;SDS011;11073;48.586;12.066;2023-07-24T08:33:26;14.88;;;9.70;;
21820;SDS011;11073;48.586;12.066;2023-07-24T08:35:59;12.40;;;8.98;;
21820;SDS011;11073;48.586;12.066;2023-07-24T08:38:28;12.80;;;9.18;;
21820;SDS011;11073;48.586;12.066;2023-07-24T08:41:01;10.98;;;8.13;;
21820;SDS011;11073;48.586;12.066;2023-07-24T08:43:31;15.68;;;9.10;;
21820;SDS011;11073;48.586;12.066;2023-07-24T08:46:01;13.95;;;8.50;;
21820;SDS011;11073;48.586;12.066;2023-07-24T08:48:32;13.77;;;8.40;;
21820;SDS011;11073;48.586;12.066;2023-07-24T08:51:03;10.45;;;7.78;;
21820;SDS011;11073;48.586;12.066;2023-07-24T08:53:33;14.68;;;8.65;;
21820;SDS011;11073;48.586;12.066;2023-07-24T08:56:04;13.13;;;8.43;;
21820;SDS011;11073;48.586;12.066;2023-07-24T08:58:33;15.20;;;9.20;;
21820;SDS011;11073;48.586;12.066;2023-07-24T09:01:03;12.40;;;8.20;;
21820;SDS011;11073;48.586;12.066;2023-07-24T09:03:33;11.68;;;8.18;;
21820;SDS011;11073;48.586;12.066;2023-07-24T09:06:03;10.85;;;8.70;;
21820;SDS011;11073;48.586;12.066;2023-07-24T09:08:35;10.82;;;7.70;;
21820;SDS011;11073;48.586;12.066;2023-07-24T09:11:05;10.05;;;7.35;;
21820;SDS011;11073;48.586;12.066;2023-07-24T09:13:35;11.52;;;7.97;;
21820;SDS011;11073;48.586;12.066;2023-07-24T09:16:05;8.50;;;6.65;;
21820;SDS011;11073;48.586;12.066;2023-07-24T09:18:41;9.32;;;7.13;;
21820;SDS011;11073;48.586;12.066;2023-07-24T09:21:10;8.68;;;6.45;;
21820;SDS011;11073;48.586;12.066;2023-07-24T09:23:39;10.35;;;6.30;;
21820;SDS011;11073;48.586;12.066;2023-07-24T09:26:10;8.18;;;6.18;;
21820;SDS011;11073;48.586;12.066;2023-07-24T09:28:39;9.48;;;6.72;;
21820;SDS011;11073;48.586;12.066;2023-07-24T09:31:07;8.35;;;6.70;;
21820;SDS011;11073;48.586;12.066;2023-07-24T09:33:37;10.75;;;6.15;;
21820;SDS011;11073;48.586;12.066;2023-07-24T09:36:08;9.05;;;6.40;;
21820;SDS011;11073;48.586;12.066;2023-07-24T09:38:37;9.07;;;6.68;;
21820;SDS011;11073;48.586;12.066;2023-07-24T09:41:09;10.02;;;6.88;;
21820;SDS011;11073;48.586;12.066;2023-07-24T09:43:41;8.98;;;6.47;;
21820;SDS011;11073;48.586;12.066;2023-07-24T09:46:10;10.55;;;6.43;;
21820;SDS011;11073;48.586;12.066;2023-07-24T09:48:39;9.73;;;6.50;;
21820;SDS011;11073;48.586;12.066;2023-07-24T09:51:30;10.20;;;6.35;;
21820;SDS011;11073;48.586;12.066;2023-07-24T09:54:01;9.98;;;6.85;;
21820;SDS011;11073;48.586;12.066;2023-07-24T09:56:35;9.55;;;6.38;;
21820;SDS011;11073;48.586;12.066;2023-07-24T09:59:20;11.13;;;6.20;;
21820;SDS011;11073;48.586;12.066;2023-07-24T10:01:49;10.77;;;7.00;;
21820;SDS011;11073;48.586;12.066;2023-07-24T10:04:19;14.63;;;7.68;;
21820;SDS011;11073;48.586;12.066;2023-07-24T10:06:50;11.75;;;6.82;;
21820;SDS011;11073;48.586;12.066;2023-07-24T10:09:20;10.98;;;7.18;;
21820;SDS011;11073;48.586;12.066;2023-07-24T10:11:54;9.35;;;6.78;;
21820;SDS011;11073;48.586;12.066;2023-07-24T10:14:23;9.52;;;6.40;;
21820;SDS011;11073;48.586;12.066;2023-07-24T10:16:53;9.10;;;6.72;;
21820;SDS011;11073;48.586;12.066;2023-07-24T10:19:22;9.07;;;6.78;;
21820;SDS011;11073;48.586;12.066;2023-07-24T10:21:53;7.82;;;6.15;;
21820;SDS011;11073;48.586;12.066;2023-07-24T10:24:28;10.07;;;6.72;;
21820;SDS011;11073;48.586;12.066;2023-07-24T10:27:08;15.18;;;7.05;;
21820;SDS011;11073;48.586;12.066;2023-07-24T10:29:37;11.88;;;6.97;;
21820;SDS011;11073;48.586;12.066;2023-07-24T10:32:16;9.45;;;7.38;;
21820;SDS011;11073;48.586;12.066;2023-07-24T10:34:55;7.28;;;6.35;;
21820;SDS011;11073;48.586;12.066;2023-07-24T10:37:32;8.25;;;6.43;;
21820;SDS011;11073;48.586;12.066;2023-07-24T10:40:02;9.38;;;6.65;;
21820;SDS011;11073;48.586;12.066;2023-07-24T10:42:32;8.05;;;6.05;;
21820;SDS011;11073;48.586;12.066;2023-07-24T10:45:01;9.18;;;6.55;;
21820;SDS011;11073;48.586;12.066;2023-07-24T10:47:33;6.60;;;5.85;;
21820;SDS011;11073;48.586;12.066;2023-07-24T10:50:02;8.75;;;5.55;;
21820;SDS011;11073;48.586;12.066;2023-07-24T10:52:33;10.65;;;6.57;;
21820;SDS011;11073;48.586;12.066;2023-07-24T10:55:02;7.97;;;6.38;;
21820;SDS011;11073;48.586;12.066;2023-07-24T10:57:31;9.32;;;6.57;;
21820;SDS011;11073;48.586;12.066;2023-07-24T10:59:59;7.90;;;6.43;;
21820;SDS011;11073;48.586;12.066;2023-07-24T11:02:28;8.80;;;6.43;;
21820;SDS011;11073;48.586;12.066;2023-07-24T11:04:58;11.95;;;6.75;;
21820;SDS011;11073;48.586;12.066;2023-07-24T11:07:32;7.80;;;6.55;;
21820;SDS011;11073;48.586;12.066;2023-07-24T11:10:01;8.30;;;6.63;;
21820;SDS011;11073;48.586;12.066;2023-07-24T11:12:30;8.20;;;6.20;;
21820;SDS011;11073;48.586;12.066;2023-07-24T11:14:59;9.85;;;6.88;;
21820;SDS011;11073;48.586;12.066;2023-07-24T11:17:34;10.88;;;6.95;;
21820;SDS011;11073;48.586;12.066;2023-07-24T11:20:05;8.43;;;6.75;;
21820;SDS011;11073;48.586;12.066;2023-07-24T11:22:37;8.82;;;6.70;;
21820;SDS011;11073;48.586;12.066;2023-07-24T11:25:07;9.88;;;6.70;;
21820;SDS011;11073;48.586;12.066;2023-07-24T11:27:40;11.65;;;6.90;;
21820;SDS011;11073;48.586;12.066;2023-07-24T11:30:10;10.38;;;6.93;;
21820;SDS011;11073;48.586;12.066;2023-07-24T11:32:40;10.15;;;7.22;;
21820;SDS011;11073;48.586;12.066;2023-07-24T11:35:10;8.35;;;6.90;;
21820;SDS011;11073;48.586;12.066;2023-07-24T11:37:41;9.23;;;6.78;;
21820;SDS011;11073;48.586;12.066;2023-07-24T11:40:10;9.65;;;6.50;;
21820;SDS011;11073;48.586;12.066;2023-07-24T11:42:42;8.88;;;7.22;;
21820;SDS011;11073;48.586;12.066;2023-07-24T11:45:11;9.38;;;7.32;;
21820;SDS011;11073;48.586;12.066;2023-07-24T11:47:41;10.63;;;7.32;;
21820;SDS011;11073;48.586;12.066;2023-07-24T11:50:13;11.23;;;7.45;;
21820;SDS011;11073;48.586;12.066;2023-07-24T11:52:45;9.38;;;7.00;;
21820;SDS011;11073;48.586;12.066;2023-07-24T11:55:14;7.35;;;5.90;;
21820;SDS011;11073;48.586;12.066;2023-07-24T11:57:54;7.18;;;5.43;;
21820;SDS011;11073;48.586;12.066;2023-07-24T12:00:24;9.90;;;5.70;;
21820;SDS011;11073;48.586;12.066;2023-07-24T12:02:53;6.93;;;5.30;;
21820;SDS011;11073;48.586;12.066;2023-07-24T12:05:27;7.00;;;4.82;;
21820;SDS011;11073;48.586;12.066;2023-07-24T12:07:58;5.90;;;5.15;;
21820;SDS011;11073;48.586;12.066;2023-07-24T12:10:30;5.47;;;4.88;;
21820;SDS011;11073;48.586;12.066;2023-07-24T12:12:59;7.82;;;5.57;;
21820;SDS011;11073;48.586;12.066;2023-07-24T12:15:28;8.35;;;4.88;;
21820;SDS011;11073;48.586;12.066;2023-07-24T12:17:59;5.80;;;5.00;;
21820;SDS011;11073;48.586;12.066;2023-07-24T12:20:31;5.95;;;4.80;;
21820;SDS011;11073;48.586;12.066;2023-07-24T12:23:02;8.93;;;4.70;;
21820;SDS011;11073;48.586;12.066;2023-07-24T12:25:31;7.63;;;5.30;;
21820;SDS011;11073;48.586;12.066;2023-07-24T12:28:00;7.22;;;5.20;;
21820;SDS011;11073;48.586;12.066;2023-07-24T12:30:28;6.32;;;5.03;;
21820;SDS011;11073;48.586;12.066;2023-07-24T12:32:57;6.25;;;5.13;;
21820;SDS011;11073;48.586;12.066;2023-07-24T12:35:26;8.45;;;5.65;;
21820;SDS011;11073;48.586;12.066;2023-07-24T12:37:55;6.55;;;5.38;;
21820;SDS011;11073;48.586;12.066;2023-07-24T12:40:26;6.13;;;5.50;;
21820;SDS011;11073;48.586;12.066;2023-07-24T12:42:55;6.45;;;5.35;;
21820;SDS011;11073;48.586;12.066;2023-07-24T12:45:24;6.90;;;5.43;;
21820;SDS011;11073;48.586;12.066;2023-07-24T12:47:53;8.90;;;5.32;;
21820;SDS011;11073;48.586;12.066;2023-07-24T12:50:22;8.48;;;6.00;;
21820;SDS011;11073;48.586;12.066;2023-07-24T12:52:51;12.20;;;6.43;;
21820;SDS011;11073;48.586;12.066;2023-07-24T12:55:21;11.13;;;6.72;;
21820;SDS011;11073;48.586;12.066;2023-07-24T12:57:51;12.30;;;6.80;;
21820;SDS011;11073;48.586;12.066;2023-07-24T13:00:19;10.15;;;6.32;;
21820;SDS011;11073;48.586;12.066;2023-07-24T13:02:48;9.38;;;6.65;;
21820;SDS011;11073;48.586;12.066;2023-07-24T13:05:17;13.00;;;7.40;;
21820;SDS011;11073;48.586;12.066;2023-07-24T13:07:45;9.15;;;6.55;;
21820;SDS011;11073;48.586;12.066;2023-07-24T13:10:14;11.60;;;7.43;;
21820;SDS011;11073;48.586;12.066;2023-07-24T13:12:43;8.63;;;6.53;;
21820;SDS011;11073;48.586;12.066;2023-07-24T13:15:14;10.80;;;6.55;;
21820;SDS011;11073;48.586;12.066;2023-07-24T13:17:43;8.05;;;6.53;;
21820;SDS011;11073;48.586;12.066;2023-07-24T13:20:11;9.68;;;7.03;;
21820;SDS011;11073;48.586;12.066;2023-07-24T13:22:40;10.52;;;7.22;;
21820;SDS011;11073;48.586;12.066;2023-07-24T13:25:10;10.48;;;7.30;;
21820;SDS011;11073;48.586;12.066;2023-07-24T13:27:41;8.82;;;7.22;;
21820;SDS011;11073;48.586;12.066;2023-07-24T13:30:11;9.80;;;7.38;;
21820;SDS011;11073;48.586;12.066;2023-07-24T13:32:41;8.90;;;6.97;;
21820;SDS011;11073;48.586;12.066;2023-07-24T13:35:10;7.78;;;6.55;;
21820;SDS011;11073;48.586;12.066;2023-07-24T13:37:39;8.77;;;6.75;;
21820;SDS011;11073;48.586;12.066;2023-07-24T13:40:08;8.38;;;6.88;;
21820;SDS011;11073;48.586;12.066;2023-07-24T13:42:37;9.30;;;6.72;;
21820;SDS011;11073;48.586;12.066;2023-07-24T13:45:06;7.10;;;5.90;;
21820;SDS011;11073;48.586;12.066;2023-07-24T13:47:35;8.38;;;6.53;;
21820;SDS011;11073;48.586;12.066;2023-07-24T13:50:06;7.53;;;6.22;;
21820;SDS011;11073;48.586;12.066;2023-07-24T13:52:35;9.10;;;6.18;;
21820;SDS011;11073;48.586;12.066;2023-07-24T13:55:04;6.53;;;5.60;;
21820;SDS011;11073;48.586;12.066;2023-07-24T13:57:33;7.00;;;5.20;;
21820;SDS011;11073;48.586;12.066;2023-07-24T14:00:02;7.50;;;5.60;;
21820;SDS011;11073;48.586;12.066;2023-07-24T14:02:37;6.63;;;5.20;;
21820;SDS011;11073;48.586;12.066;2023-07-24T14:05:08;7.50;;;5.50;;
21820;SDS011;11073;48.586;12.066;2023-07-24T14:07:36;9.23;;;6.05;;
21820;SDS011;11073;48.586;12.066;2023-07-24T14:10:05;5.95;;;5.25;;
21820;SDS011;11073;48.586;12.066;2023-07-24T14:12:34;6.65;;;5.82;;
21820;SDS011;11073;48.586;12.066;2023-07-24T14:15:03;8.70;;;5.93;;
21820;SDS011;11073;48.586;12.066;2023-07-24T14:17:33;9.80;;;5.90;;
21820;SDS011;11073;48.586;12.066;2023-07-24T14:20:02;7.05;;;5.80;;
21820;SDS011;11073;48.586;12.066;2023-07-24T14:22:32;6.65;;;5.40;;
21820;SDS011;11073;48.586;12.066;2023-07-24T14:25:00;7.05;;;5.65;;
21820;SDS011;11073;48.586;12.066;2023-07-24T14:27:29;9.20;;;6.72;;
21820;SDS011;11073;48.586;12.066;2023-07-24T14:29:58;6.85;;;5.88;;
21820;SDS011;11073;48.586;12.066;2023-07-24T14:32:26;6.78;;;5.78;;
21820;SDS011;11073;48.586;12.066;2023-07-24T14:34:55;6.78;;;5.57;;
21820;SDS011;11073;48.586;12.066;2023-07-24T14:37:24;7.82;;;5.72;;
21820;SDS011;11073;48.586;12.066;2023-07-24T14:39:54;5.65;;;4.90;;